Map

Track Data

SID SEASON NUMBER BASIN SUBBASIN NAME ISO_TIME NATURE LAT LON WMO_WIND WMO_PRES WMO_AGENCY TRACK_TYPE DIST2LAND LANDFALL IFLAG USA_AGENCY USA_ATCF_ID USA_LAT USA_LON USA_RECORD USA_STATUS USA_WIND USA_PRES USA_SSHS USA_R34_NE USA_R34_SE USA_R34_SW USA_R34_NW USA_R50_NE USA_R50_SE USA_R50_SW USA_R50_NW USA_R64_NE USA_R64_SE USA_R64_SW USA_R64_NW USA_POCI USA_ROCI USA_RMW USA_EYE TOKYO_LAT TOKYO_LON TOKYO_GRADE TOKYO_WIND TOKYO_PRES TOKYO_R50_DIR TOKYO_R50_LONG TOKYO_R50_SHORT TOKYO_R30_DIR TOKYO_R30_LONG TOKYO_R30_SHORT TOKYO_LAND CMA_LAT CMA_LON CMA_CAT CMA_WIND CMA_PRES HKO_LAT HKO_LON HKO_CAT HKO_WIND HKO_PRES NEWDELHI_LAT NEWDELHI_LON NEWDELHI_GRADE NEWDELHI_WIND NEWDELHI_PRES NEWDELHI_CI NEWDELHI_DP NEWDELHI_POCI REUNION_LAT REUNION_LON REUNION_TYPE REUNION_WIND REUNION_PRES REUNION_TNUM REUNION_CI REUNION_RMW REUNION_R34_NE REUNION_R34_SE REUNION_R34_SW REUNION_R34_NW REUNION_R50_NE REUNION_R50_SE REUNION_R50_SW REUNION_R50_NW REUNION_R64_NE REUNION_R64_SE REUNION_R64_SW REUNION_R64_NW BOM_LAT BOM_LON BOM_TYPE BOM_WIND BOM_PRES BOM_TNUM BOM_CI BOM_RMW BOM_R34_NE BOM_R34_SE BOM_R34_SW BOM_R34_NW BOM_R50_NE BOM_R50_SE BOM_R50_SW BOM_R50_NW BOM_R64_NE BOM_R64_SE BOM_R64_SW BOM_R64_NW BOM_ROCI BOM_POCI BOM_EYE BOM_POS_METHOD BOM_PRES_METHOD NADI_LAT NADI_LON NADI_CAT NADI_WIND NADI_PRES WELLINGTON_LAT WELLINGTON_LON WELLINGTON_WIND WELLINGTON_PRES DS824_LAT DS824_LON DS824_STAGE DS824_WIND DS824_PRES TD9636_LAT TD9636_LON TD9636_STAGE TD9636_WIND TD9636_PRES TD9635_LAT TD9635_LON TD9635_WIND TD9635_PRES TD9635_ROCI NEUMANN_LAT NEUMANN_LON NEUMANN_CLASS NEUMANN_WIND NEUMANN_PRES MLC_LAT MLC_LON MLC_CLASS MLC_WIND MLC_PRES USA_GUST BOM_GUST BOM_GUST_PER REUNION_GUST REUNION_GUST_PER USA_SEAHGT USA_SEARAD_NE USA_SEARAD_SE USA_SEARAD_SW USA_SEARAD_NW STORM_SPEED STORM_DIR
1882070S15062 1882 14 SI MM NOT_NAMED 1882-03-10 18:00:00 NR -14.7000 62.4000 main 783 774 __________O___ -1 -14.7000 62.4000 7 1 197
1882070S15062 1882 14 SI MM NOT_NAMED 1882-03-10 21:00:00 NR -14.7656 62.3778 main 774 759 __________P___ -1 -14.7656 62.3778 7 2 197
1882070S15062 1882 14 SI MM NOT_NAMED 1882-03-11 00:00:00 NR -14.8649 62.3445 main 759 750 __________P___ -1 -14.8649 62.3445 7 3 198
1882070S15062 1882 14 SI MM NOT_NAMED 1882-03-11 03:00:00 NR -15.0318 62.2890 main 750 718 __________P___ -1 -15.0318 62.2890 7 5 198
1882070S15062 1882 14 SI MM NOT_NAMED 1882-03-11 06:00:00 NR -15.3000 62.2000 main 718 677 __________O___ -1 -15.3000 62.2000 7 7 198
1882070S15062 1882 14 SI MM NOT_NAMED 1882-03-11 09:00:00 NR -15.6898 62.0711 main 677 630 __________P___ -1 -15.6898 62.0711 7 9 198
1882070S15062 1882 14 SI MM NOT_NAMED 1882-03-11 12:00:00 NR -16.1677 61.9156 main 622 576 __________P___ -1 -16.1677 61.9156 7 10 197
1882070S15062 1882 14 SI MM NOT_NAMED 1882-03-11 15:00:00 NR -16.6867 61.7523 main 576 523 __________P___ -1 -16.6867 61.7523 7 11 196
1882070S15062 1882 14 SI MM NOT_NAMED 1882-03-11 18:00:00 NR -17.2000 61.6000 main 523 487 __________O___ -1 -17.2000 61.6000 7 10 195
1882070S15062 1882 14 SI MM NOT_NAMED 1882-03-11 21:00:00 NR -17.6474 61.4813 main 487 448 __________P___ -1 -17.6474 61.4813 7 9 194
1882070S15062 1882 14 SI MM NOT_NAMED 1882-03-12 00:00:00 NR -18.0799 61.3772 main 448 418 __________P___ -1 -18.0799 61.3772 7 9 192
1882070S15062 1882 14 SI MM NOT_NAMED 1882-03-12 03:00:00 NR -18.4974 61.2845 main 418 389 __________P___ -1 -18.4974 61.2845 7 8 192
1882070S15062 1882 14 SI MM NOT_NAMED 1882-03-12 06:00:00 NR -18.9000 61.2000 main 389 362 __________O___ -1 -18.9000 61.2000 7 8 192
1882070S15062 1882 14 SI MM NOT_NAMED 1882-03-12 09:00:00 NR -19.2934 61.1096 main 362 341 __________P___ -1 -19.2934 61.1096 7 8 192
1882070S15062 1882 14 SI MM NOT_NAMED 1882-03-12 12:00:00 NR -19.6725 61.0275 main 341 335 __________P___ -1 -19.6725 61.0275 7 8 191
1882070S15062 1882 14 SI MM NOT_NAMED 1882-03-12 15:00:00 NR -20.0403 60.9566 main 335 323 __________P___ -1 -20.0403 60.9566 7 7 189
1882070S15062 1882 14 SI MM NOT_NAMED 1882-03-12 18:00:00 NR -20.4000 60.9000 main 323 315 __________O___ -1 -20.4000 60.9000 7 7 189
1882070S15062 1882 14 SI MM NOT_NAMED 1882-03-12 21:00:00 NR -20.7166 60.8406 main 315 315 __________P___ -1 -20.7166 60.8406 7 6 189
1882070S15062 1882 14 SI MM NOT_NAMED 1882-03-13 00:00:00 NR -21.0325 60.7980 main 321 321 __________P___ -1 -21.0325 60.7980 7 7 185
1882070S15062 1882 14 SI MM NOT_NAMED 1882-03-13 03:00:00 NR -21.3822 60.7814 main 335 335 __________P___ -1 -21.3822 60.7814 7 8 0
1882070S15062 1882 14 SI MM NOT_NAMED 1882-03-13 06:00:00 NR -21.8000 60.8000 main 352 352 __________O___ -1 -21.8000 60.8000 7 10 178
1882070S15062 1882 14 SI MM NOT_NAMED 1882-03-13 09:00:00 NR -22.3602 60.8120 main 384 384 __________P___ -1 -22.3602 60.8120 7 12 177
1882070S15062 1882 14 SI MM NOT_NAMED 1882-03-13 12:00:00 NR -22.9843 60.8662 main 432 432 __________P___ -1 -22.9843 60.8662 7 13 173
1882070S15062 1882 14 SI MM NOT_NAMED 1882-03-13 15:00:00 NR -23.6163 60.9873 main 485 485 __________P___ -1 -23.6163 60.9873 7 13 166
1882070S15062 1882 14 SI MM NOT_NAMED 1882-03-13 18:00:00 NR -24.2000 61.2000 main 548 548 __________O___ -1 -24.2000 61.2000 7 12 156
1882070S15062 1882 14 SI MM NOT_NAMED 1882-03-13 21:00:00 NR -24.6929 61.5206 main 610 610 __________P___ -1 -24.6929 61.5206 7 11 144
1882070S15062 1882 14 SI MM NOT_NAMED 1882-03-14 00:00:00 NR -25.1069 61.9298 main 670 670 __________P___ -1 -25.1069 61.9298 7 11 134
1882070S15062 1882 14 SI MM NOT_NAMED 1882-03-14 03:00:00 NR -25.4673 62.3992 main 737 737 __________P___ -1 -25.4673 62.3992 7 11 128
1882070S15062 1882 14 SI MM NOT_NAMED 1882-03-14 06:00:00 NR -25.8000 62.9000 main 795 __________O___ -1 -25.8000 62.9000 7 11 126

About IBTrACS Database

This database is a web-friendly format of International Best Track Archive for Climate Stewardship (IBTrACS), a global best track data archive curated by NOAA dating back to 1842.

Updated: 2021-10-27